Time;durP1;ratioP1;P1;durP2;ratioP2;P2;SDS_P1;SDS_P2;PMS_P1;PMS_P2;Temp;Humidity;BMP_temperature;BMP_pressure;BME280_temperature;BME280_humidity;BME280_pressure;Samples;Min_cycle;Max_cycle;Signal;HPM_P1;HPM_P2
2023/05/19 00:00:54;;;;;;;15.73;9.00;;;;;;;9.23;100.00;102468.50;5265080;28;20240;-68
2023/05/19 00:03:26;;;;;;;13.27;8.88;;;;;;;9.20;100.00;102470.41;5267250;28;20025;-68
2023/05/19 00:06:00;;;;;;;16.38;9.00;;;;;;;9.22;100.00;102464.13;5272239;28;20555;-68
2023/05/19 00:08:33;;;;;;;17.42;9.43;;;;;;;9.16;100.00;102459.03;5283640;28;20029;-68
2023/05/19 00:11:05;;;;;;;13.80;8.68;;;;;;;9.20;100.00;102460.66;5267383;28;20021;-68
2023/05/19 00:13:36;;;;;;;13.05;8.82;;;;;;;9.13;100.00;102461.00;5265831;28;20059;-68
2023/05/19 00:16:08;;;;;;;11.73;8.25;;;;;;;9.10;100.00;102461.97;5267942;28;20099;-68
2023/05/19 00:18:40;;;;;;;15.40;8.80;;;;;;;9.08;100.00;102460.31;5265814;28;20031;-68
2023/05/19 00:21:12;;;;;;;12.48;8.48;;;;;;;9.01;100.00;102457.94;5278499;28;20028;-68
2023/05/19 00:23:43;;;;;;;16.45;9.55;;;;;;;8.98;100.00;102455.41;5266177;28;20104;-67
2023/05/19 00:26:15;;;;;;;18.52;9.23;;;;;;;8.99;100.00;102453.59;5277571;28;20028;-68
2023/05/19 00:28:46;;;;;;;12.48;8.77;;;;;;;8.93;100.00;102446.75;5274438;28;20017;-68
2023/05/19 00:31:18;;;;;;;14.93;7.95;;;;;;;8.93;100.00;102449.41;5262236;28;20033;-67
2023/05/19 00:33:50;;;;;;;12.75;8.32;;;;;;;8.90;100.00;102446.00;5263656;28;20516;-68
2023/05/19 00:36:22;;;;;;;15.32;8.73;;;;;;;8.87;100.00;102440.84;5275726;28;20017;-67
2023/05/19 00:38:53;;;;;;;13.55;8.60;;;;;;;8.86;100.00;102441.75;5278757;28;20047;-67
2023/05/19 00:41:25;;;;;;;12.80;8.13;;;;;;;8.85;100.00;102432.06;5263890;28;20024;-68
2023/05/19 00:43:56;;;;;;;13.43;8.65;;;;;;;8.81;100.00;102442.81;5265419;28;20032;-67
2023/05/19 00:46:29;;;;;;;16.42;8.70;;;;;;;8.79;100.00;102439.38;5268197;28;20074;-67
2023/05/19 00:49:00;;;;;;;15.57;8.13;;;;;;;8.77;100.00;102429.72;5261737;28;20021;-68
2023/05/19 00:51:32;;;;;;;14.35;8.70;;;;;;;8.70;100.00;102429.13;5270243;28;20027;-68
2023/05/19 00:54:04;;;;;;;14.57;8.70;;;;;;;8.73;100.00;102429.00;5280785;28;20035;-67
2023/05/19 00:56:35;;;;;;;16.02;8.48;;;;;;;8.69;100.00;102435.38;5273044;28;20028;-68
2023/05/19 00:59:07;;;;;;;15.32;8.75;;;;;;;8.65;100.00;102431.13;5267592;28;20059;-67
2023/05/19 01:01:38;;;;;;;14.02;8.60;;;;;;;8.58;100.00;102432.31;5272798;28;20028;-68
2023/05/19 01:04:10;;;;;;;13.68;9.27;;;;;;;8.57;100.00;102439.44;5265627;28;20035;-68
2023/05/19 01:06:42;;;;;;;13.85;8.77;;;;;;;8.57;100.00;102442.09;5276710;28;20045;-68
2023/05/19 01:09:15;;;;;;;17.95;8.77;;;;;;;8.57;100.00;102435.88;5279503;28;20082;-68
2023/05/19 01:11:47;;;;;;;13.82;8.40;;;;;;;8.53;100.00;102427.16;5266099;28;20036;-68
2023/05/19 01:14:20;;;;;;;13.35;7.82;;;;;;;8.50;100.00;102437.09;5274259;28;20072;-68
2023/05/19 01:17:05;;;;;;;16.10;8.73;;;;;;;8.51;100.00;102438.81;5273592;28;20028;-68
2023/05/19 01:20:01;;;;;;;14.07;8.20;;;;;;;8.53;100.00;102432.50;5260919;28;20108;-68
2023/05/19 01:22:56;;;;;;;14.40;7.88;;;;;;;8.45;100.00;102429.28;5263907;28;20033;-68
2023/05/19 01:26:01;;;;;;;15.70;8.52;;;;;;;8.49;100.00;102435.34;5276989;28;20024;-68
2023/05/19 01:28:48;;;;;;;12.02;7.03;;;;;;;8.39;100.00;102435.69;5271162;28;20205;-68
2023/05/19 01:31:24;;;;;;;13.90;7.65;;;;;;;8.38;100.00;102438.41;5261590;28;20036;-68
2023/05/19 01:33:57;;;;;;;14.07;7.22;;;;;;;8.36;100.00;102437.63;5278168;28;20480;-68
2023/05/19 01:36:30;;;;;;;13.10;7.45;;;;;;;8.33;100.00;102435.97;5269521;28;20513;-68
2023/05/19 01:39:02;;;;;;;12.82;7.93;;;;;;;8.30;100.00;102436.09;5262614;28;20020;-68
2023/05/19 01:41:34;;;;;;;15.10;7.85;;;;;;;8.29;100.00;102430.84;5270736;28;20043;-68
2023/05/19 01:44:06;;;;;;;14.32;7.63;;;;;;;8.24;100.00;102431.03;5277990;28;20028;-67
2023/05/19 01:46:39;;;;;;;20.27;8.63;;;;;;;8.23;100.00;102430.16;5274501;28;20029;-68
2023/05/19 01:49:12;;;;;;;14.07;7.80;;;;;;;8.20;100.00;102429.41;5267905;28;20033;-68
2023/05/19 01:51:43;;;;;;;14.98;7.53;;;;;;;8.17;100.00;102429.53;5275796;28;20487;-68
2023/05/19 01:54:15;;;;;;;13.13;7.28;;;;;;;8.17;100.00;102424.22;5270912;28;20036;-68
2023/05/19 01:57:17;;;;;;;15.52;7.60;;;;;;;8.17;100.00;102422.44;5265746;28;20032;-68
2023/05/19 02:00:08;;;;;;;15.38;7.90;;;;;;;8.18;100.00;102416.19;5268216;28;20540;-67
2023/05/19 02:02:59;;;;;;;14.75;7.60;;;;;;;8.14;100.00;102419.03;5280919;28;20047;-68
2023/05/19 02:05:43;;;;;;;14.43;8.45;;;;;;;8.10;100.00;102415.66;5273866;28;20047;-67
2023/05/19 02:08:37;;;;;;;11.88;7.85;;;;;;;8.09;100.00;102418.34;5273241;28;20032;-68
2023/05/19 02:11:39;;;;;;;12.18;7.28;;;;;;;8.05;100.00;102415.84;5282459;28;20147;-68
2023/05/19 02:14:44;;;;;;;14.50;7.53;;;;;;;8.07;100.00;102420.22;5271494;28;20555;-69
2023/05/19 02:17:17;;;;;;;14.43;8.07;;;;;;;7.94;100.00;102418.06;5270361;28;20036;-68
2023/05/19 02:19:49;;;;;;;12.52;7.22;;;;;;;7.98;100.00;102408.19;5277535;28;20024;-68
2023/05/19 02:22:20;;;;;;;14.93;8.18;;;;;;;7.95;100.00;102414.47;5264835;28;20056;-68
2023/05/19 02:24:52;;;;;;;14.95;7.97;;;;;;;7.96;100.00;102416.22;5270995;28;20060;-68
2023/05/19 02:27:23;;;;;;;17.23;7.70;;;;;;;7.95;100.00;102413.59;5261850;28;20402;-68
2023/05/19 02:29:55;;;;;;;13.85;8.43;;;;;;;7.93;100.00;102407.50;5269797;28;20029;-68
2023/05/19 02:32:26;;;;;;;14.60;8.25;;;;;;;7.95;100.00;102411.81;5263684;28;20101;-68
2023/05/19 02:34:58;;;;;;;13.30;7.85;;;;;;;7.87;100.00;102411.25;5269211;28;20025;-68
2023/05/19 02:37:31;;;;;;;13.70;8.55;;;;;;;7.81;100.00;102409.72;5273823;28;20032;-68
2023/05/19 02:40:03;;;;;;;16.75;8.48;;;;;;;7.92;100.00;102409.28;5277007;28;20032;-68
2023/05/19 02:42:34;;;;;;;14.43;8.43;;;;;;;7.83;100.00;102405.19;5270029;28;20466;-68
2023/05/19 02:45:06;;;;;;;18.55;8.38;;;;;;;7.78;100.00;102406.31;5267615;28;20025;-68
2023/05/19 02:47:38;;;;;;;15.52;7.53;;;;;;;7.82;100.00;102407.91;5265331;28;20078;-68
2023/05/19 02:50:09;;;;;;;13.68;8.50;;;;;;;7.82;100.00;102410.56;5270183;28;20038;-68
2023/05/19 02:52:41;;;;;;;17.00;8.02;;;;;;;7.76;100.00;102401.03;5272517;28;20040;-69
2023/05/19 02:55:15;;;;;;;19.05;9.77;;;;;;;7.85;100.00;102403.34;5268326;28;20531;-68
2023/05/19 02:57:47;;;;;;;15.07;9.13;;;;;;;7.81;100.00;102398.22;5258988;28;20120;-68
2023/05/19 03:00:18;;;;;;;14.57;8.50;;;;;;;7.73;100.00;102389.66;5267653;28;20041;-68
2023/05/19 03:02:51;;;;;;;16.02;9.43;;;;;;;7.81;100.00;102399.09;5272341;28;20088;-68
2023/05/19 03:05:23;;;;;;;17.00;9.68;;;;;;;7.69;100.00;102393.38;5265486;28;20044;-68
2023/05/19 03:07:55;;;;;;;13.98;9.38;;;;;;;7.72;100.00;102387.97;5275636;28;20394;-68
2023/05/19 03:10:27;;;;;;;12.60;8.55;;;;;;;7.73;100.00;102392.31;5270583;28;20029;-68
2023/05/19 03:12:58;;;;;;;18.30;9.70;;;;;;;7.71;100.00;102397.72;5275621;28;20028;-68
2023/05/19 03:15:29;;;;;;;14.93;9.80;;;;;;;7.74;100.00;102405.56;5263556;28;20459;-68
2023/05/19 03:18:01;;;;;;;14.85;8.98;;;;;;;7.70;100.00;102398.63;5280044;28;20036;-68
2023/05/19 03:20:32;;;;;;;14.85;8.73;;;;;;;7.68;100.00;102395.19;5261259;28;20462;-68
2023/05/19 03:23:03;;;;;;;14.40;9.27;;;;;;;7.72;100.00;102391.47;5273962;28;20582;-68
2023/05/19 03:25:35;;;;;;;14.85;8.70;;;;;;;7.62;100.00;102400.75;5274834;28;20052;-68
2023/05/19 03:28:07;;;;;;;17.35;9.13;;;;;;;7.59;100.00;102404.38;5263016;28;20029;-68
2023/05/19 03:30:38;;;;;;;14.20;8.90;;;;;;;7.69;100.00;102407.56;5265342;28;20108;-68
2023/05/19 03:33:09;;;;;;;17.20;9.75;;;;;;;7.68;100.00;102408.47;5279403;28;20153;-68
2023/05/19 03:35:43;;;;;;;15.25;9.00;;;;;;;7.60;100.00;102421.19;5271853;28;20553;-68
2023/05/19 03:38:14;;;;;;;17.38;9.30;;;;;;;7.54;100.00;102408.16;5269579;28;20044;-68
2023/05/19 03:40:45;;;;;;;14.85;9.07;;;;;;;7.63;100.00;102413.97;5263058;28;20017;-68
2023/05/19 03:43:17;;;;;;;15.40;9.60;;;;;;;7.57;100.00;102415.97;5264915;28;20025;-68
2023/05/19 03:45:48;;;;;;;14.93;9.52;;;;;;;7.51;100.00;102416.22;5262611;28;20379;-68
2023/05/19 03:48:20;;;;;;;12.98;9.13;;;;;;;7.45;100.00;102419.97;5263845;28;20114;-69
2023/05/19 03:50:51;;;;;;;16.40;9.80;;;;;;;7.53;100.00;102420.53;5267211;28;20425;-68
2023/05/19 03:53:23;;;;;;;16.67;9.00;;;;;;;7.47;100.00;102420.78;5270114;28;20469;-68
2023/05/19 03:55:55;;;;;;;14.75;10.02;;;;;;;7.39;100.00;102423.72;5280266;28;20399;-68
2023/05/19 03:58:28;;;;;;;16.17;9.40;;;;;;;7.41;100.00;102423.69;5260764;28;20056;-68
2023/05/19 04:01:00;;;;;;;15.50;10.10;;;;;;;7.44;100.00;102420.88;5268542;28;20063;-68
2023/05/19 04:03:31;;;;;;;17.00;10.48;;;;;;;7.33;100.00;102415.16;5263347;28;20025;-68
2023/05/19 04:06:03;;;;;;;15.65;9.40;;;;;;;7.37;100.00;102416.75;5271142;28;20036;-68
2023/05/19 04:08:35;;;;;;;17.88;10.95;;;;;;;7.36;100.00;102417.66;5279232;28;20063;-68
2023/05/19 04:11:07;;;;;;;17.52;9.88;;;;;;;7.32;100.00;102413.41;5269249;28;20045;-68
2023/05/19 04:13:38;;;;;;;20.58;10.15;;;;;;;7.42;100.00;102420.06;5283239;28;20028;-68
2023/05/19 04:16:10;;;;;;;15.43;9.52;;;;;;;7.33;100.00;102420.44;5265156;28;20975;-68
2023/05/19 04:18:41;;;;;;;16.98;9.93;;;;;;;7.27;100.00;102426.84;5272470;28;20025;-68
2023/05/19 04:21:12;;;;;;;16.15;9.50;;;;;;;7.38;100.00;102414.03;5267546;28;20040;-68
2023/05/19 04:23:44;;;;;;;14.88;9.63;;;;;;;7.33;100.00;102416.00;5276594;28;20032;-68
2023/05/19 04:26:16;;;;;;;15.15;9.25;;;;;;;7.33;100.00;102413.34;5266254;28;20024;-68
2023/05/19 04:28:48;;;;;;;18.35;9.93;;;;;;;7.43;100.00;102421.81;5266408;28;20028;-68
2023/05/19 04:31:20;;;;;;;16.42;10.32;;;;;;;7.34;100.00;102414.19;5283651;28;20671;-68
2023/05/19 04:33:52;;;;;;;18.60;9.50;;;;;;;7.36;100.00;102425.63;5270738;28;20451;-68
2023/05/19 04:36:23;;;;;;;16.73;10.10;;;;;;;7.37;100.00;102414.09;5262433;28;20461;-68
2023/05/19 04:39:01;;;;;;;16.70;10.45;;;;;;;7.41;100.00;102424.53;5259263;28;20025;-68
2023/05/19 04:41:33;;;;;;;17.55;10.05;;;;;;;7.52;100.00;102424.13;5258050;28;20044;-68
2023/05/19 04:44:12;;;;;;;16.65;10.80;;;;;;;7.44;100.00;102424.44;5259018;28;20147;-68
2023/05/19 04:46:44;;;;;;;20.33;11.00;;;;;;;7.48;100.00;102430.50;5273180;28;20028;-68
2023/05/19 04:49:15;;;;;;;17.88;10.95;;;;;;;7.45;100.00;102426.16;5261543;28;20055;-68
2023/05/19 04:51:49;;;;;;;16.02;10.07;;;;;;;7.54;100.00;102434.72;5272849;28;20024;-68
2023/05/19 04:54:20;;;;;;;18.25;10.65;;;;;;;7.49;100.00;102434.88;5270986;28;20045;-68
2023/05/19 04:56:51;;;;;;;18.30;10.77;;;;;;;7.59;100.00;102427.41;5272864;28;20017;-68
2023/05/19 04:59:23;;;;;;;17.13;10.20;;;;;;;7.54;100.00;102430.25;5268162;28;20032;-68
2023/05/19 05:01:55;;;;;;;17.95;11.50;;;;;;;7.55;100.00;102433.78;5276699;28;20361;-68
2023/05/19 05:04:26;;;;;;;16.73;11.75;;;;;;;7.63;100.00;102427.25;5275431;28;20035;-68
2023/05/19 05:06:57;;;;;;;17.45;11.00;;;;;;;7.68;100.00;102432.38;5275903;28;20140;-68
2023/05/19 05:09:29;;;;;;;20.05;11.45;;;;;;;7.66;100.00;102424.47;5275352;28;20024;-68
2023/05/19 05:12:01;;;;;;;17.80;11.15;;;;;;;7.63;100.00;102432.56;5279620;28;20458;-68
2023/05/19 05:14:33;;;;;;;20.70;11.75;;;;;;;7.72;100.00;102426.00;5271369;28;20028;-68
2023/05/19 05:17:05;;;;;;;21.88;12.55;;;;;;;7.74;100.00;102428.63;5277108;28;20043;-68
2023/05/19 05:19:36;;;;;;;20.35;11.80;;;;;;;7.70;100.00;102414.56;5263173;28;20098;-68
2023/05/19 05:22:08;;;;;;;20.80;11.52;;;;;;;7.73;100.00;102430.41;5268686;28;20135;-68
2023/05/19 05:24:40;;;;;;;18.52;11.57;;;;;;;7.78;100.00;102425.75;5277364;28;20016;-68
2023/05/19 05:27:12;;;;;;;19.38;11.95;;;;;;;7.86;100.00;102430.78;5287729;28;20039;-68
2023/05/19 05:29:43;;;;;;;20.98;11.98;;;;;;;7.89;100.00;102438.63;5272607;28;20463;-68
2023/05/19 05:32:15;;;;;;;18.88;11.20;;;;;;;7.96;100.00;102440.13;5267950;28;20534;-68
2023/05/19 05:34:47;;;;;;;17.70;11.63;;;;;;;7.96;100.00;102437.47;5274254;28;20383;-68
2023/05/19 05:37:18;;;;;;;21.42;11.98;;;;;;;8.01;100.00;102437.28;5274626;28;20029;-68
2023/05/19 05:39:49;;;;;;;18.63;11.60;;;;;;;8.02;100.00;102437.22;5273981;28;20035;-68
2023/05/19 05:42:21;;;;;;;15.40;11.27;;;;;;;8.08;100.00;102436.09;5274238;28;20021;-68
2023/05/19 05:44:52;;;;;;;17.20;11.18;;;;;;;8.15;100.00;102437.59;5281162;28;20108;-68
2023/05/19 05:47:24;;;;;;;20.30;11.18;;;;;;;8.18;100.00;102436.59;5268493;28;20024;-68
2023/05/19 05:49:56;;;;;;;18.23;12.25;;;;;;;8.21;100.00;102436.47;5272107;28;20035;-68
2023/05/19 05:52:29;;;;;;;17.38;11.32;;;;;;;8.28;100.00;102431.75;5260948;28;20025;-68
2023/05/19 05:55:01;;;;;;;16.73;10.90;;;;;;;8.28;100.00;102435.28;5262465;28;20090;-68
2023/05/19 05:57:35;;;;;;;19.33;10.48;;;;;;;8.32;100.00;102433.38;5276027;28;20023;-68
2023/05/19 06:00:14;;;;;;;18.63;11.65;;;;;;;8.37;100.00;102429.59;5262101;28;20939;-68
2023/05/19 06:02:46;;;;;;;18.05;11.52;;;;;;;8.50;100.00;102426.47;5269666;28;20033;-68
2023/05/19 06:05:17;;;;;;;20.73;11.10;;;;;;;8.55;100.00;102433.31;5272094;28;20052;-68
2023/05/19 06:07:48;;;;;;;16.77;10.95;;;;;;;8.61;100.00;102437.47;5310425;27;20085;-70
2023/05/19 06:10:20;;;;;;;18.42;10.88;;;;;;;8.68;100.00;102440.75;5304451;28;20023;-68
2023/05/19 06:12:51;;;;;;;19.55;10.93;;;;;;;8.78;100.00;102445.63;5304632;28;20374;-69
2023/05/19 06:15:22;;;;;;;18.50;11.15;;;;;;;8.85;100.00;102442.69;5318348;28;20425;-68
2023/05/19 06:17:54;;;;;;;16.38;11.00;;;;;;;8.89;100.00;102450.47;5309944;27;20047;-69
2023/05/19 06:20:26;;;;;;;17.70;10.07;;;;;;;8.98;100.00;102442.09;5312095;27;20032;-68
2023/05/19 06:22:57;;;;;;;19.45;10.82;;;;;;;9.06;100.00;102447.06;5311198;28;20389;-68
2023/05/19 06:25:29;;;;;;;15.15;10.10;;;;;;;9.18;100.00;102446.50;5321382;27;20065;-68
2023/05/19 06:28:00;;;;;;;16.30;10.18;;;;;;;9.17;100.00;102439.47;5304827;28;20123;-68
2023/05/19 06:30:32;;;;;;;16.75;10.63;;;;;;;9.28;100.00;102440.78;5311477;28;20051;-68
2023/05/19 06:33:03;;;;;;;17.25;10.38;;;;;;;9.29;100.00;102443.38;5303034;27;20477;-68
2023/05/19 06:35:35;;;;;;;18.63;10.25;;;;;;;9.39;100.00;102443.81;5302571;28;20051;-68
2023/05/19 06:38:06;;;;;;;17.73;10.55;;;;;;;9.46;100.00;102445.28;5315841;28;20035;-68
2023/05/19 06:40:37;;;;;;;15.25;9.93;;;;;;;9.51;100.00;102439.72;5306396;27;20422;-68
2023/05/19 06:43:09;;;;;;;18.00;10.45;;;;;;;9.55;100.00;102444.84;5313598;28;20034;-68
2023/05/19 06:45:40;;;;;;;17.83;10.90;;;;;;;9.60;100.00;102442.81;5315717;28;20015;-68
2023/05/19 06:48:11;;;;;;;16.58;10.10;;;;;;;9.71;100.00;102438.81;5311561;28;20054;-69
2023/05/19 06:50:43;;;;;;;15.50;10.05;;;;;;;9.81;100.00;102432.09;5310313;28;20032;-68
2023/05/19 06:53:16;;;;;;;19.48;10.95;;;;;;;9.90;100.00;102439.66;5309212;27;20039;-68
2023/05/19 06:55:50;;;;;;;17.92;10.52;;;;;;;9.89;100.00;102440.56;5316181;28;20533;-68
2023/05/19 06:58:21;;;;;;;17.48;10.30;;;;;;;10.09;100.00;102441.44;5309768;28;20032;-68
2023/05/19 07:00:52;;;;;;;15.10;9.40;;;;;;;10.14;100.00;102440.28;5312310;28;20074;-68
2023/05/19 07:03:24;;;;;;;17.73;9.63;;;;;;;10.28;100.00;102442.25;5315255;28;20052;-68
2023/05/19 07:05:56;;;;;;;19.40;10.25;;;;;;;10.30;100.00;102445.75;5316654;28;20043;-68
2023/05/19 07:08:27;;;;;;;14.07;9.75;;;;;;;10.33;100.00;102434.91;5308859;28;20027;-68
2023/05/19 07:10:58;;;;;;;15.05;9.70;;;;;;;10.54;100.00;102435.63;5310578;27;20063;-68
2023/05/19 07:13:31;;;;;;;13.23;8.52;;;;;;;10.60;100.00;102439.78;5308913;28;20028;-68
2023/05/19 07:16:03;;;;;;;16.98;8.65;;;;;;;10.73;100.00;102440.88;5310970;28;20042;-68
2023/05/19 07:18:34;;;;;;;14.27;9.05;;;;;;;10.89;100.00;102434.75;5305488;28;20035;-67
2023/05/19 07:21:06;;;;;;;15.45;8.82;;;;;;;11.03;100.00;102442.06;5314018;27;20023;-67
2023/05/19 07:23:37;;;;;;;16.15;9.20;;;;;;;11.19;100.00;102438.47;5309253;28;20028;-67
2023/05/19 07:26:08;;;;;;;15.93;9.25;;;;;;;11.29;100.00;102438.81;5311481;28;20401;-68
2023/05/19 07:28:41;;;;;;;12.30;7.97;;;;;;;11.39;100.00;102439.22;5314270;28;20024;-67
2023/05/19 07:31:12;;;;;;;14.02;7.85;;;;;;;11.52;100.00;102437.56;5308518;28;20087;-67
2023/05/19 07:33:44;;;;;;;13.25;8.52;;;;;;;11.65;100.00;102445.78;5310850;27;20024;-67
2023/05/19 07:36:15;;;;;;;13.15;7.80;;;;;;;11.80;100.00;102438.72;5314511;28;20427;-67
2023/05/19 07:38:47;;;;;;;13.38;8.32;;;;;;;11.89;100.00;102435.56;5317123;27;20066;-68
2023/05/19 07:41:18;;;;;;;16.30;8.77;;;;;;;12.05;100.00;102432.88;5306704;28;20430;-67
2023/05/19 07:43:49;;;;;;;13.65;8.25;;;;;;;12.11;100.00;102434.34;5309670;28;20032;-68
2023/05/19 07:46:21;;;;;;;13.15;7.95;;;;;;;12.32;100.00;102434.91;5307159;27;20103;-67
2023/05/19 07:48:52;;;;;;;12.45;8.07;;;;;;;12.38;100.00;102428.34;5313461;28;20023;-68
2023/05/19 07:51:24;;;;;;;14.77;8.27;;;;;;;12.49;100.00;102423.22;5313975;28;20038;-68
2023/05/19 07:53:56;;;;;;;13.77;8.52;;;;;;;12.60;100.00;102419.88;5311646;28;20008;-68
2023/05/19 07:56:28;;;;;;;15.02;8.07;;;;;;;12.69;100.00;102420.19;5311144;28;20020;-68
2023/05/19 07:58:59;;;;;;;13.20;8.05;;;;;;;12.90;100.00;102425.22;5308212;28;20023;-68
2023/05/19 08:01:31;;;;;;;13.73;7.97;;;;;;;12.99;100.00;102423.78;5310552;28;20081;-68
2023/05/19 08:04:04;;;;;;;12.77;7.50;;;;;;;13.11;100.00;102426.56;5305826;28;20024;-68
2023/05/19 08:06:35;;;;;;;12.40;6.63;;;;;;;13.13;100.00;102421.09;5314321;28;20055;-67
2023/05/19 08:09:07;;;;;;;10.65;6.68;;;;;;;13.20;100.00;102418.94;5313011;28;20105;-68
2023/05/19 08:11:38;;;;;;;13.90;6.68;;;;;;;13.30;100.00;102412.91;5313026;28;20027;-68
2023/05/19 08:14:10;;;;;;;10.88;7.13;;;;;;;13.50;100.00;102417.03;5307307;28;20105;-69
2023/05/19 08:16:42;;;;;;;7.88;6.35;;;;;;;13.64;100.00;102417.97;5305024;28;20027;-69
2023/05/19 08:19:14;;;;;;;12.10;6.70;;;;;;;13.87;100.00;102411.09;5309292;28;20115;-68
2023/05/19 08:21:47;;;;;;;12.20;6.50;;;;;;;13.88;100.00;102408.31;5306931;28;20076;-68
2023/05/19 08:24:18;;;;;;;15.02;6.60;;;;;;;13.97;100.00;102400.63;5310290;28;20058;-68
2023/05/19 08:26:50;;;;;;;12.07;6.85;;;;;;;14.10;100.00;102401.53;5314013;28;20031;-69
2023/05/19 08:29:21;;;;;;;13.95;6.57;;;;;;;14.34;100.00;102400.84;5305515;28;20114;-68
2023/05/19 08:31:53;;;;;;;9.43;5.70;;;;;;;14.42;100.00;102399.38;5306205;28;20019;-68
2023/05/19 08:34:24;;;;;;;10.18;5.22;;;;;;;14.57;100.00;102396.63;5316551;28;20130;-68
2023/05/19 08:36:56;;;;;;;11.95;5.90;;;;;;;14.82;100.00;102396.66;5320203;28;20020;-68
2023/05/19 08:39:27;;;;;;;10.68;5.97;;;;;;;14.83;100.00;102394.81;5314612;27;20023;-69
2023/05/19 08:42:00;;;;;;;8.88;5.88;;;;;;;14.93;100.00;102389.66;5306042;28;20031;-68
2023/05/19 08:44:32;;;;;;;12.25;6.50;;;;;;;14.96;100.00;102384.94;5319402;27;20039;-68
2023/05/19 08:47:04;;;;;;;11.07;5.78;;;;;;;15.28;100.00;102390.72;5290022;28;20081;-68
2023/05/19 08:49:45;;;;;;;11.77;5.60;;;;;;;15.34;100.00;102386.72;5309352;28;20039;-68
2023/05/19 08:52:34;;;;;;;9.57;4.78;;;;;;;15.40;100.00;102378.19;5311894;28;20517;-69
2023/05/19 08:55:14;;;;;;;12.70;5.97;;;;;;;15.62;100.00;102379.31;5310768;28;20055;-69
2023/05/19 08:57:47;;;;;;;11.00;4.78;;;;;;;15.74;100.00;102377.59;5314455;28;20031;-69
2023/05/19 09:00:19;;;;;;;11.75;4.85;;;;;;;15.83;100.00;102368.81;5292767;27;20028;-68
2023/05/19 09:02:52;;;;;;;10.25;3.97;;;;;;;16.06;100.00;102375.19;5305136;27;20409;-69
2023/05/19 09:05:23;;;;;;;10.50;4.57;;;;;;;16.06;100.00;102375.19;5314693;28;20051;-68
2023/05/19 09:07:55;;;;;;;8.77;4.38;;;;;;;16.10;100.00;102363.19;5315164;28;20107;-69
2023/05/19 09:10:27;;;;;;;8.85;4.20;;;;;;;16.22;100.00;102364.09;5311251;28;20027;-68
2023/05/19 09:12:58;;;;;;;10.63;3.80;;;;;;;16.29;100.00;102353.72;5319284;28;20076;-68
2023/05/19 09:15:32;;;;;;;8.90;4.00;;;;;;;16.33;100.00;102353.34;5309656;28;20030;-68
2023/05/19 09:18:11;;;;;;;6.55;3.60;;;;;;;16.39;100.00;102363.66;5307642;28;20073;-69
2023/05/19 09:20:44;;;;;;;8.27;3.03;;;;;;;16.58;100.00;102359.53;5312557;27;20047;-68
2023/05/19 09:23:17;;;;;;;7.93;2.50;;;;;;;16.65;100.00;102356.25;5317385;27;20568;-69
2023/05/19 09:25:49;;;;;;;8.68;2.65;;;;;;;16.74;100.00;102354.69;5307092;27;20036;-69
2023/05/19 09:28:26;;;;;;;11.88;3.05;;;;;;;16.77;100.00;102351.72;5320261;27;20063;-68
2023/05/19 09:31:09;;;;;;;8.55;2.30;;;;;;;16.73;100.00;102346.72;5310812;28;20016;-68
2023/05/19 09:33:42;;;;;;;8.75;2.78;;;;;;;16.76;100.00;102339.25;5304475;28;20551;-68
2023/05/19 09:36:13;;;;;;;8.93;2.80;;;;;;;16.88;100.00;102345.53;5316914;27;20030;-68
2023/05/19 09:38:45;;;;;;;6.57;2.38;;;;;;;16.90;95.89;102340.88;5306431;28;20035;-69
2023/05/19 09:41:16;;;;;;;8.02;2.13;;;;;;;16.98;97.73;102345.66;5308769;28;20027;-68
2023/05/19 09:43:56;;;;;;;6.00;2.28;;;;;;;16.99;99.50;102334.75;5304908;28;20024;-68
2023/05/19 09:46:28;;;;;;;7.65;2.90;;;;;;;17.16;97.50;102343.31;5316240;28;20373;-69
2023/05/19 09:49:09;;;;;;;6.43;2.25;;;;;;;17.07;95.65;102344.03;5314933;28;20393;-68
2023/05/19 09:51:40;;;;;;;6.20;2.45;;;;;;;17.00;98.55;102349.94;5313724;28;20480;-68
2023/05/19 09:54:15;;;;;;;7.00;2.22;;;;;;;17.16;97.32;102348.69;5311290;27;20038;-68
2023/05/19 09:56:56;;;;;;;7.75;2.35;;;;;;;17.10;99.12;102344.66;5321631;27;20020;-68
2023/05/19 09:59:28;;;;;;;5.95;1.95;;;;;;;17.14;100.00;102342.56;5305020;28;20114;-68
2023/05/19 10:02:01;;;;;;;7.13;2.20;;;;;;;17.06;95.80;102340.50;5322316;27;20020;-68
2023/05/19 10:04:32;;;;;;;5.97;2.20;;;;;;;17.10;89.60;102344.66;5311624;28;20036;-68
2023/05/19 10:07:05;;;;;;;6.35;1.80;;;;;;;17.11;91.68;102350.94;5321802;27;20525;-68
2023/05/19 10:09:40;;;;;;;7.68;2.25;;;;;;;17.19;90.50;102337.69;5318863;28;20027;-69
2023/05/19 10:12:12;;;;;;;6.13;2.00;;;;;;;17.25;96.88;102323.69;5313618;27;20035;-69
2023/05/19 10:14:44;;;;;;;5.47;2.20;;;;;;;17.43;92.31;102330.28;5308623;28;20077;-69
2023/05/19 10:17:15;;;;;;;6.40;1.85;;;;;;;17.43;91.88;102329.41;5313765;28;20019;-68
2023/05/19 10:19:49;;;;;;;7.10;2.17;;;;;;;17.53;91.53;102329.53;5331850;27;20019;-68
2023/05/19 10:22:21;;;;;;;;;;;;;;;17.67;98.26;102342.72;5316786;28;20533;-68
2023/05/19 10:24:54;;;;;;;4.97;1.63;;;;;;;17.47;88.03;102336.28;5316027;27;19955;-69
2023/05/19 10:27:28;;;;;;;8.18;1.95;;;;;;;17.55;90.80;102332.97;5319825;28;20115;-68
2023/05/19 10:30:04;;;;;;;7.50;2.23;;;;;;;17.40;92.06;102340.47;5317783;28;20024;-68
2023/05/19 10:32:39;;;;;;;5.63;2.08;;;;;;;17.33;93.24;102332.00;5315679;27;20268;-68
2023/05/19 10:35:25;;;;;;;6.75;2.58;;;;;;;17.22;88.53;102330.19;5329382;27;20444;-68
2023/05/19 10:38:03;;;;;;;6.05;2.42;;;;;;;17.27;91.69;102324.41;5320445;28;20027;-68
2023/05/19 10:40:50;;;;;;;7.75;2.40;;;;;;;17.31;89.37;102316.94;5330517;27;20032;-68
2023/05/19 10:43:32;;;;;;;6.80;2.33;;;;;;;17.36;90.51;102314.72;5326371;27;20031;-68
2023/05/19 10:46:05;;;;;;;8.43;2.47;;;;;;;17.47;90.47;102308.44;5322738;27;20142;-69
2023/05/19 10:48:36;;;;;;;7.35;2.45;;;;;;;17.64;92.93;102318.69;5315475;27;20107;-68
2023/05/19 10:51:10;;;;;;;6.55;2.35;;;;;;;17.56;86.09;102319.31;5312655;27;20035;-68
2023/05/19 10:53:45;;;;;;;7.78;3.17;;;;;;;17.69;88.84;102319.16;5310860;27;20372;-68
2023/05/19 10:56:35;;;;;;;8.73;2.72;;;;;;;17.69;92.50;102313.75;5319784;27;20035;-68
2023/05/19 10:59:06;;;;;;;10.27;2.92;;;;;;;17.79;87.25;102305.75;5317319;28;20031;-68
2023/05/19 11:01:40;;;;;;;5.57;2.58;;;;;;;17.79;90.70;102309.28;5305808;28;20614;-68
2023/05/19 11:04:12;;;;;;;9.15;2.95;;;;;;;17.94;87.44;102311.75;5325896;27;20031;-68
2023/05/19 11:06:50;;;;;;;5.97;2.67;;;;;;;17.99;87.08;102306.81;5316379;27;20035;-68
2023/05/19 11:09:22;;;;;;;8.65;2.72;;;;;;;17.89;87.43;102297.75;5309998;28;20540;-68
2023/05/19 11:11:54;;;;;;;5.90;2.42;;;;;;;17.99;85.44;102304.13;5316006;28;20038;-68
2023/05/19 11:14:26;;;;;;;7.40;2.42;;;;;;;18.10;90.52;102297.78;5320799;28;20031;-68
2023/05/19 11:16:58;;;;;;;9.52;2.60;;;;;;;18.10;84.00;102303.19;5313863;28;20019;-68
2023/05/19 11:19:40;;;;;;;8.45;2.60;;;;;;;18.06;82.98;102305.28;5311389;28;20042;-68
2023/05/19 11:22:12;;;;;;;6.70;2.33;;;;;;;18.11;83.48;102300.34;5304971;27;20024;-68
2023/05/19 11:24:48;;;;;;;5.65;2.13;;;;;;;18.11;79.54;102308.47;5306763;27;20473;-68
2023/05/19 11:27:29;;;;;;;6.97;1.88;;;;;;;18.09;79.37;102307.72;5308655;28;20024;-68
2023/05/19 11:30:13;;;;;;;5.78;1.90;;;;;;;18.19;82.43;102314.06;5306843;28;20024;-68
2023/05/19 11:32:46;;;;;;;7.03;2.28;;;;;;;18.26;80.69;102308.16;5310811;28;20543;-68
2023/05/19 11:35:20;;;;;;;7.32;1.90;;;;;;;18.34;80.69;102302.94;5307329;27;20172;-68
2023/05/19 11:37:53;;;;;;;7.60;2.60;;;;;;;18.38;82.93;102304.38;5312021;28;20027;-68
2023/05/19 11:40:25;;;;;;;6.68;2.25;;;;;;;18.42;82.52;102297.72;5310175;28;20492;-68
2023/05/19 11:42:57;;;;;;;7.57;2.40;;;;;;;18.48;84.47;102296.31;5311147;27;20031;-68